createdAt,value
2019-03-24T00:03:47.501Z,55.77
2019-03-24T00:13:53.118Z,54.00
2019-03-24T00:23:58.714Z,56.13
2019-03-24T00:34:04.422Z,60.60
2019-03-24T00:44:11.063Z,65.13
2019-03-24T00:54:16.676Z,51.13
2019-03-24T01:04:22.285Z,48.97
2019-03-24T01:14:27.883Z,51.80
2019-03-24T01:24:33.624Z,48.63
2019-03-24T01:34:39.154Z,47.70
2019-03-24T01:44:44.683Z,47.40
2019-03-24T01:54:50.297Z,50.23
2019-03-24T02:04:55.885Z,51.87
2019-03-24T02:15:01.398Z,52.87
2019-03-24T02:25:07.503Z,62.50
2019-03-24T02:35:13.075Z,45.93
2019-03-24T02:45:19.660Z,45.93
2019-03-24T02:55:25.279Z,45.87
2019-03-24T03:05:30.829Z,41.77
2019-03-24T03:15:36.344Z,44.93
2019-03-24T03:25:41.876Z,39.77
2019-03-24T03:35:47.446Z,39.43
2019-03-24T03:45:52.985Z,40.33
2019-03-24T03:55:58.646Z,36.77
2019-03-24T04:06:04.330Z,37.63
2019-03-24T04:16:09.864Z,37.37
2019-03-24T04:26:15.365Z,36.63
2019-03-24T04:36:21.324Z,38.47
2019-03-24T04:46:26.840Z,40.70
2019-03-24T04:56:32.434Z,41.20
2019-03-24T05:06:38.442Z,41.33
2019-03-24T05:16:44.029Z,41.73
2019-03-24T05:26:49.611Z,38.30
2019-03-24T05:36:55.261Z,38.63
2019-03-24T05:47:00.771Z,30.63
2019-03-24T05:57:06.426Z,34.13
2019-03-24T06:07:14.856Z,31.03
2019-03-24T06:17:20.433Z,30.57
2019-03-24T06:27:27.997Z,31.97
2019-03-24T06:37:33.597Z,27.73
2019-03-24T06:47:57.417Z,28.67
2019-03-24T06:58:02.184Z,29.33
2019-03-24T07:08:19.755Z,27.63
2019-03-24T07:18:25.329Z,38.40
2019-03-24T07:28:30.874Z,27.87
2019-03-24T07:38:36.444Z,28.70
2019-03-24T07:48:44.955Z,30.00
2019-03-24T07:58:51.316Z,25.30
2019-03-24T08:08:56.925Z,26.17
2019-03-24T08:19:02.595Z,27.27
2019-03-24T08:29:08.199Z,26.70
2019-03-24T08:39:13.701Z,29.33
2019-03-24T08:49:19.403Z,23.83
2019-03-24T08:59:24.936Z,25.20
2019-03-24T09:09:30.456Z,25.17
2019-03-24T09:19:36.079Z,24.77
2019-03-24T09:29:41.875Z,22.67
2019-03-24T09:39:47.650Z,22.43
2019-03-24T09:49:56.838Z,19.30
2019-03-24T10:00:02.383Z,20.83
2019-03-24T10:10:09.277Z,10.53
2019-03-24T10:20:14.996Z,11.67
2019-03-24T10:30:20.526Z,13.30
2019-03-24T10:40:28.841Z,8.97
2019-03-24T10:50:33.197Z,8.67
2019-03-24T11:00:43.995Z,15.03
2019-03-24T11:10:49.515Z,9.87
2019-03-24T11:20:55.143Z,10.40
2019-03-24T11:31:02.137Z,12.63
2019-03-24T11:41:07.770Z,9.63
2019-03-24T11:51:13.485Z,10.20
2019-03-24T12:01:19.063Z,7.77
2019-03-24T12:11:24.604Z,9.93
2019-03-24T12:21:31.190Z,9.30
2019-03-24T12:31:36.846Z,8.80
2019-03-24T12:41:42.346Z,9.67
2019-03-24T12:51:47.851Z,13.60
2019-03-24T13:01:53.787Z,14.77
2019-03-24T13:11:59.609Z,13.33
2019-03-24T13:22:05.434Z,27.70
2019-03-24T13:32:13.063Z,15.97
2019-03-24T13:42:18.753Z,30.40
2019-03-24T13:52:24.348Z,11.80
2019-03-24T14:02:30.075Z,13.70
2019-03-24T14:12:35.958Z,16.40
2019-03-24T14:22:41.800Z,18.57
2019-03-24T14:32:47.646Z,19.53
2019-03-24T14:42:53.350Z,22.03
2019-03-24T14:53:05.984Z,19.67
2019-03-24T15:03:12.106Z,22.93
2019-03-24T15:13:20.048Z,26.70
2019-03-24T15:23:28.626Z,26.40
2019-03-24T15:33:35.809Z,25.13
2019-03-24T15:43:41.670Z,25.00
2019-03-24T15:53:47.487Z,25.37
2019-03-24T16:03:54.845Z,26.40
2019-03-24T16:14:00.741Z,25.97
2019-03-24T16:24:06.580Z,30.60
2019-03-24T16:34:12.545Z,34.03
2019-03-24T16:44:19.842Z,31.50
2019-03-24T16:54:26.003Z,31.20
2019-03-24T17:04:32.077Z,35.97
2019-03-24T17:14:39.080Z,36.27
2019-03-24T17:24:46.147Z,36.47
2019-03-24T17:34:52.674Z,35.90
2019-03-24T17:44:59.996Z,39.90
2019-03-24T17:55:06.008Z,38.50
2019-03-24T18:05:12.206Z,35.83
2019-03-24T18:15:18.161Z,33.37
2019-03-24T18:25:24.005Z,31.17
2019-03-24T18:35:31.420Z,32.83
2019-03-24T18:45:39.113Z,35.87
2019-03-24T18:55:45.110Z,32.60
2019-03-24T19:05:52.648Z,35.23
2019-03-24T19:15:58.636Z,29.03
2019-03-24T19:26:04.737Z,32.27
2019-03-24T19:36:14.956Z,34.43
2019-03-24T19:46:22.997Z,43.50
2019-03-24T19:56:29.074Z,40.07
2019-03-24T20:06:35.152Z,34.17
2019-03-24T20:16:41.275Z,30.67
2019-03-24T20:26:47.321Z,36.00
2019-03-24T20:36:53.297Z,35.50
2019-03-24T20:47:00.396Z,34.27
2019-03-24T20:57:06.372Z,38.27
2019-03-24T21:07:12.446Z,46.47
2019-03-24T21:17:18.366Z,44.10
2019-03-24T21:27:24.365Z,38.23
2019-03-24T21:37:30.204Z,40.40
2019-03-24T21:47:36.116Z,42.97
2019-03-24T21:57:41.860Z,42.43
2019-03-24T22:07:47.482Z,38.73
2019-03-24T22:17:52.983Z,35.80
2019-03-24T22:27:58.781Z,33.90
2019-03-24T22:38:07.938Z,32.87
2019-03-24T22:48:13.449Z,29.03
2019-03-24T22:58:18.948Z,26.30
2019-03-24T23:08:24.468Z,25.63
2019-03-24T23:18:29.977Z,24.70
2019-03-24T23:28:35.488Z,24.27
2019-03-24T23:38:41.034Z,26.33
2019-03-24T23:48:46.754Z,25.53
2019-03-24T23:58:52.325Z,25.63
